NCAR-RAP Real-Time Weather Data

Output produced by METARs form (10 April 2020  07:24 UTC)
found at http://weather.rap.ucar.edu/surface/
 
KBTV 100654Z 27010G16KT 10SM OVC036 04/M02 A2911 RMK AO2 SLP858 T00391022